createdAt,value
2017-07-11T00:00:02.018Z,1003.43
2017-07-11T00:00:12.345Z,1003.36
2017-07-11T00:00:22.337Z,1003.36
2017-07-11T00:00:32.670Z,1003.45
2017-07-11T00:00:42.684Z,1003.37
2017-07-11T00:00:52.325Z,1003.44
2017-07-11T00:01:02.317Z,1003.38
2017-07-11T00:01:12.999Z,1003.39
2017-07-11T00:01:21.973Z,1003.4
2017-07-11T00:01:32.639Z,1003.43
2017-07-11T00:01:42.302Z,1003.37
2017-07-11T00:01:52.292Z,1003.39
2017-07-11T00:02:02.626Z,1003.39
2017-07-11T00:02:12.626Z,1003.4
2017-07-11T00:02:22.617Z,1003.37
2017-07-11T00:02:31.938Z,1003.38
2017-07-11T00:02:41.934Z,1003.41
2017-07-11T00:02:52.605Z,1003.4
2017-07-11T00:03:01.926Z,1003.4
2017-07-11T00:03:12.634Z,1003.41
2017-07-11T00:03:22.586Z,1003.33
2017-07-11T00:03:32.583Z,1003.42
2017-07-11T00:03:42.578Z,1003.37
2017-07-11T00:03:52.574Z,1003.39
2017-07-11T00:04:01.898Z,1003.38
2017-07-11T00:04:11.888Z,1003.42
2017-07-11T00:04:22.220Z,1003.39
2017-07-11T00:04:32.554Z,1003.35
2017-07-11T00:04:42.214Z,1003.39
2017-07-11T00:04:52.210Z,1003.38
2017-07-11T00:05:02.206Z,1003.35
2017-07-11T00:05:11.859Z,1003.36
2017-07-11T00:05:22.526Z,1003.38
2017-07-11T00:05:32.521Z,1003.37
2017-07-11T00:05:42.887Z,1003.33
2017-07-11T00:05:52.178Z,1003.35
2017-07-11T00:06:02.506Z,1003.4
2017-07-11T00:06:12.170Z,1003.35
2017-07-11T00:06:22.499Z,1003.37
2017-07-11T00:06:32.495Z,1003.34
2017-07-11T00:06:41.813Z,1003.35
2017-07-11T00:06:52.480Z,1003.35
2017-07-11T00:07:02.139Z,1003.37
2017-07-11T00:07:12.473Z,1003.38
2017-07-11T00:07:22.131Z,1003.37
2017-07-11T00:07:32.462Z,1003.37
2017-07-11T00:07:42.460Z,1003.37
2017-07-11T00:07:52.454Z,1003.39
2017-07-11T00:08:01.779Z,1003.4
2017-07-11T00:08:12.447Z,1003.38
2017-07-11T00:08:22.436Z,1003.35
2017-07-11T00:08:32.471Z,1003.4
2017-07-11T00:08:41.760Z,1003.34
2017-07-11T00:08:52.092Z,1003.35
2017-07-11T00:09:01.752Z,1003.38
2017-07-11T00:09:12.081Z,1003.36
2017-07-11T00:09:22.078Z,1003.41
2017-07-11T00:09:32.401Z,1003.34
2017-07-11T00:09:42.069Z,1003.36
2017-07-11T00:09:52.057Z,1003.4
2017-07-11T00:10:02.055Z,1003.39
2017-07-11T00:10:12.383Z,1003.41
2017-07-11T00:10:22.039Z,1003.36
2017-07-11T00:10:32.042Z,1003.36
2017-07-11T00:10:42.035Z,1003.35
2017-07-11T00:10:52.036Z,1003.39
2017-07-11T00:11:01.689Z,1003.38
2017-07-11T00:11:12.019Z,1003.37
2017-07-11T00:11:21.681Z,1003.39
2017-07-11T00:11:32.342Z,1003.4
2017-07-11T00:11:42.006Z,1003.36
2017-07-11T00:11:52.339Z,1003.39
2017-07-11T00:12:01.998Z,1003.41
2017-07-11T00:12:12.322Z,1003.4
2017-07-11T00:12:22.323Z,1003.38
2017-07-11T00:12:32.314Z,1003.41
2017-07-11T00:12:42.309Z,1003.35
2017-07-11T00:12:51.637Z,1003.36
2017-07-11T00:13:02.301Z,1003.36
2017-07-11T00:13:11.624Z,1003.32
2017-07-11T00:13:22.291Z,1003.38
2017-07-11T00:13:32.640Z,1003.36
2017-07-11T00:13:41.947Z,1003.39
2017-07-11T00:13:51.607Z,1003.41
2017-07-11T00:14:02.267Z,1003.39
2017-07-11T00:14:11.938Z,1003.38
2017-07-11T00:14:22.263Z,1003.36
2017-07-11T00:14:31.923Z,1003.37
2017-07-11T00:14:42.251Z,1003.36
2017-07-11T00:14:52.245Z,1003.33
2017-07-11T00:15:02.242Z,1003.36
2017-07-11T00:15:11.565Z,1003.37
2017-07-11T00:15:21.904Z,1003.4
2017-07-11T00:15:32.223Z,1003.35
2017-07-11T00:15:41.554Z,1003.35
2017-07-11T00:15:52.219Z,1003.33
2017-07-11T00:16:01.873Z,1003.36
2017-07-11T00:16:11.537Z,1003.37
2017-07-11T00:16:22.199Z,1003.34
2017-07-11T00:16:31.649Z,1003.35
2017-07-11T00:16:41.861Z,1003.35
2017-07-11T00:16:52.191Z,1003.37
2017-07-11T00:17:02.199Z,1003.39
2017-07-11T00:17:11.840Z,1003.39
2017-07-11T00:17:22.182Z,1003.37
2017-07-11T00:17:31.834Z,1003.39
2017-07-11T00:17:41.830Z,1003.39
2017-07-11T00:17:52.153Z,1003.39
2017-07-11T00:18:02.151Z,1003.35
2017-07-11T00:18:11.810Z,1003.35
2017-07-11T00:18:22.205Z,1003.39
2017-07-11T00:18:32.139Z,1003.38
2017-07-11T00:18:41.798Z,1003.37
2017-07-11T00:18:51.792Z,1003.38
2017-07-11T00:19:01.791Z,1003.36
2017-07-11T00:19:11.787Z,1003.4
2017-07-11T00:19:22.117Z,1003.41
2017-07-11T00:19:31.769Z,1003.37
2017-07-11T00:19:42.104Z,1003.38
2017-07-11T00:19:51.832Z,1003.37
2017-07-11T00:20:01.424Z,1003.36
2017-07-11T00:20:11.417Z,1003.35
2017-07-11T00:20:21.752Z,1003.37
2017-07-11T00:20:32.074Z,1003.38
2017-07-11T00:20:41.734Z,1003.34
2017-07-11T00:20:51.738Z,1003.33
2017-07-11T00:21:01.730Z,1003.38
2017-07-11T00:21:11.390Z,1003.38
2017-07-11T00:21:22.057Z,1003.42
2017-07-11T00:21:31.379Z,1003.38
2017-07-11T00:21:41.708Z,1003.38
2017-07-11T00:21:52.042Z,1003.38
2017-07-11T00:22:01.698Z,1003.41
2017-07-11T00:22:11.359Z,1003.43
2017-07-11T00:22:21.687Z,1003.39
2017-07-11T00:22:31.348Z,1003.41
2017-07-11T00:22:41.682Z,1003.41
2017-07-11T00:22:52.008Z,1003.36
2017-07-11T00:23:02.007Z,1003.4
2017-07-11T00:23:11.328Z,1003.4
2017-07-11T00:23:21.329Z,1003.45
2017-07-11T00:23:32.352Z,1003.38
2017-07-11T00:23:41.984Z,1003.37
2017-07-11T00:23:51.980Z,1003.41
2017-07-11T00:24:02.027Z,1003.38
2017-07-11T00:24:11.636Z,1003.37
2017-07-11T00:24:21.631Z,1003.39
2017-07-11T00:24:31.957Z,1003.4
2017-07-11T00:24:41.956Z,1003.42
2017-07-11T00:24:51.954Z,1003.43
2017-07-11T00:25:01.610Z,1003.37
2017-07-11T00:25:11.944Z,1003.38
2017-07-11T00:25:21.609Z,1003.45
2017-07-11T00:25:31.934Z,1003.39
2017-07-11T00:25:41.592Z,1003.37
2017-07-11T00:25:51.918Z,1003.45
2017-07-11T00:26:01.580Z,1003.42
2017-07-11T00:26:11.579Z,1003.45
2017-07-11T00:26:22.260Z,1003.39
2017-07-11T00:26:31.565Z,1003.47
2017-07-11T00:26:41.562Z,1003.42
2017-07-11T00:26:51.895Z,1003.41
2017-07-11T00:27:01.548Z,1003.42
2017-07-11T00:27:11.211Z,1003.43
2017-07-11T00:27:21.877Z,1003.44
2017-07-11T00:27:31.535Z,1003.43
2017-07-11T00:27:41.194Z,1003.43
2017-07-11T00:27:51.527Z,1003.41
2017-07-11T00:28:01.858Z,1003.38
2017-07-11T00:28:11.184Z,1003.4
2017-07-11T00:28:21.848Z,1003.41
2017-07-11T00:28:31.507Z,1003.37
2017-07-11T00:28:41.504Z,1003.39
2017-07-11T00:28:51.849Z,1003.4
2017-07-11T00:29:01.488Z,1003.42
2017-07-11T00:29:11.852Z,1003.4
2017-07-11T00:29:21.487Z,1003.43
2017-07-11T00:29:31.478Z,1003.42
2017-07-11T00:29:41.476Z,1003.41
2017-07-11T00:29:51.807Z,1003.47
2017-07-11T00:30:01.467Z,1003.37
2017-07-11T00:30:11.463Z,1003.39
2017-07-11T00:30:21.789Z,1003.42
2017-07-11T00:30:31.452Z,1003.45
2017-07-11T00:30:41.787Z,1003.42
2017-07-11T00:30:51.437Z,1003.42
2017-07-11T00:31:01.777Z,1003.43
2017-07-11T00:31:11.433Z,1003.43
2017-07-11T00:31:21.760Z,1003.4
2017-07-11T00:31:31.755Z,1003.44
2017-07-11T00:31:41.747Z,1003.42
2017-07-11T00:31:51.746Z,1003.41
2017-07-11T00:32:01.070Z,1003.48
2017-07-11T00:32:11.401Z,1003.42
2017-07-11T00:32:21.390Z,1003.39
2017-07-11T00:32:31.724Z,1003.42
2017-07-11T00:32:41.718Z,1003.41
2017-07-11T00:32:51.716Z,1003.41
2017-07-11T00:33:01.711Z,1003.46
2017-07-11T00:33:11.704Z,1003.44
2017-07-11T00:33:21.698Z,1003.41
2017-07-11T00:33:31.696Z,1003.42
2017-07-11T00:33:41.351Z,1003.47
2017-07-11T00:33:51.681Z,1003.46
2017-07-11T00:34:01.008Z,1003.44
2017-07-11T00:34:11.339Z,1003.43
2017-07-11T00:34:21.665Z,1003.42
2017-07-11T00:34:30.993Z,1003.45
2017-07-11T00:34:42.028Z,1003.42
2017-07-11T00:34:51.442Z,1003.42
2017-07-11T00:35:01.657Z,1003.43
2017-07-11T00:35:11.652Z,1003.41
2017-07-11T00:35:20.973Z,1003.44
2017-07-11T00:35:31.300Z,1003.4
2017-07-11T00:35:41.295Z,1003.42
2017-07-11T00:35:51.289Z,1003.37
2017-07-11T00:36:01.285Z,1003.43
2017-07-11T00:36:11.619Z,1003.42
2017-07-11T00:36:21.276Z,1003.4
2017-07-11T00:36:31.607Z,1003.4
2017-07-11T00:36:41.605Z,1003.4
2017-07-11T00:36:50.924Z,1003.44
2017-07-11T00:37:01.257Z,1003.44
2017-07-11T00:37:10.920Z,1003.44
2017-07-11T00:37:21.244Z,1003.42
2017-07-11T00:37:31.571Z,1003.45
2017-07-11T00:37:41.569Z,1003.4
2017-07-11T00:37:51.567Z,1003.41
2017-07-11T00:38:00.894Z,1003.41
2017-07-11T00:38:11.007Z,1003.43
2017-07-11T00:38:21.549Z,1003.39
2017-07-11T00:38:31.543Z,1003.39
2017-07-11T00:38:41.210Z,1003.38
2017-07-11T00:38:51.538Z,1003.39
2017-07-11T00:39:01.196Z,1003.42
2017-07-11T00:39:11.527Z,1003.39
2017-07-11T00:39:21.525Z,1003.36
2017-07-11T00:39:31.517Z,1003.4
2017-07-11T00:39:41.175Z,1003.37
2017-07-11T00:39:51.175Z,1003.39
2017-07-11T00:40:00.834Z,1003.39
2017-07-11T00:40:11.497Z,1003.39
2017-07-11T00:40:21.161Z,1003.37
2017-07-11T00:40:31.484Z,1003.4
2017-07-11T00:40:41.480Z,1003.36
2017-07-11T00:40:51.490Z,1003.4
2017-07-11T00:41:01.139Z,1003.37
2017-07-11T00:41:11.131Z,1003.36
2017-07-11T00:41:21.133Z,1003.36
2017-07-11T00:41:31.461Z,1003.39
2017-07-11T00:41:41.454Z,1003.33
2017-07-11T00:41:51.451Z,1003.36
2017-07-11T00:42:01.108Z,1003.35
2017-07-11T00:42:11.436Z,1003.35
2017-07-11T00:42:21.095Z,1003.4
2017-07-11T00:42:31.432Z,1003.35
2017-07-11T00:42:41.422Z,1003.35
2017-07-11T00:42:51.420Z,1003.38
2017-07-11T00:43:01.420Z,1003.35
2017-07-11T00:43:11.411Z,1003.36
2017-07-11T00:43:21.405Z,1003.3
2017-07-11T00:43:31.067Z,1003.35
2017-07-11T00:43:41.060Z,1003.35
2017-07-11T00:43:51.385Z,1003.34
2017-07-11T00:44:00.717Z,1003.37
2017-07-11T00:44:10.709Z,1003.36
2017-07-11T00:44:21.374Z,1003.38
2017-07-11T00:44:30.700Z,1003.39
2017-07-11T00:44:40.697Z,1003.35
2017-07-11T00:44:51.357Z,1003.35
2017-07-11T00:45:01.020Z,1003.37
2017-07-11T00:45:11.348Z,1003.35
2017-07-11T00:45:20.675Z,1003.36
2017-07-11T00:45:31.341Z,1003.37
2017-07-11T00:45:41.000Z,1003.39
2017-07-11T00:45:51.331Z,1003.38
2017-07-11T00:46:00.989Z,1003.36
2017-07-11T00:46:10.991Z,1003.35
2017-07-11T00:46:20.982Z,1003.3
2017-07-11T00:46:30.977Z,1003.37
2017-07-11T00:46:41.301Z,1003.34
2017-07-11T00:46:50.965Z,1003.31
2017-07-11T00:47:00.960Z,1003.31
2017-07-11T00:47:11.293Z,1003.33
2017-07-11T00:47:21.290Z,1003.32
2017-07-11T00:47:31.281Z,1003.32
2017-07-11T00:47:41.279Z,1003.33
2017-07-11T00:47:50.937Z,1003.3
2017-07-11T00:48:00.932Z,1003.29
2017-07-11T00:48:10.591Z,1003.25
2017-07-11T00:48:21.254Z,1003.3
2017-07-11T00:48:31.253Z,1003.3
2017-07-11T00:48:40.909Z,1003.3
2017-07-11T00:48:51.243Z,1003.3
2017-07-11T00:49:00.567Z,1003.32
2017-07-11T00:49:11.236Z,1003.31
2017-07-11T00:49:20.902Z,1003.29
2017-07-11T00:49:30.889Z,1003.29
2017-07-11T00:49:41.218Z,1003.33
2017-07-11T00:49:51.208Z,1003.27
2017-07-11T00:50:01.201Z,1003.27
2017-07-11T00:50:11.203Z,1003.31
2017-07-11T00:50:20.858Z,1003.32
2017-07-11T00:50:31.195Z,1003.32
2017-07-11T00:50:40.851Z,1003.31
2017-07-11T00:50:51.179Z,1003.27
2017-07-11T00:51:00.844Z,1003.3
2017-07-11T00:51:11.174Z,1003.33
2017-07-11T00:51:21.170Z,1003.31
2017-07-11T00:51:31.159Z,1003.3
2017-07-11T00:51:41.161Z,1003.29
2017-07-11T00:51:50.485Z,1003.32
2017-07-11T00:52:01.147Z,1003.26
2017-07-11T00:52:10.806Z,1003.3
2017-07-11T00:52:21.138Z,1003.31
2017-07-11T00:52:31.139Z,1003.28
2017-07-11T00:52:41.130Z,1003.33
2017-07-11T00:52:51.120Z,1003.31
2017-07-11T00:53:00.787Z,1003.3
2017-07-11T00:53:11.110Z,1003.31
2017-07-11T00:53:20.776Z,1003.29
2017-07-11T00:53:30.437Z,1003.3
2017-07-11T00:53:41.106Z,1003.29
2017-07-11T00:53:50.421Z,1003.27
2017-07-11T00:54:01.096Z,1003.23
2017-07-11T00:54:11.085Z,1003.27
2017-07-11T00:54:20.740Z,1003.25
2017-07-11T00:54:31.076Z,1003.28
2017-07-11T00:54:40.734Z,1003.25
2017-07-11T00:54:50.400Z,1003.28
2017-07-11T00:55:00.389Z,1003.28
2017-07-11T00:55:11.061Z,1003.27
2017-07-11T00:55:20.716Z,1003.29
2017-07-11T00:55:31.049Z,1003.25
2017-07-11T00:55:40.708Z,1003.22
2017-07-11T00:55:50.701Z,1003.26
2017-07-11T00:56:01.028Z,1003.27
2017-07-11T00:56:11.025Z,1003.26
2017-07-11T00:56:20.686Z,1003.28
2017-07-11T00:56:31.013Z,1003.24
2017-07-11T00:56:40.404Z,1003.28
2017-07-11T00:56:50.670Z,1003.25
2017-07-11T00:57:00.331Z,1003.27
2017-07-11T00:57:10.661Z,1003.22
2017-07-11T00:57:20.321Z,1003.26
2017-07-11T00:57:30.984Z,1003.25
2017-07-11T00:57:40.644Z,1003.24
2017-07-11T00:57:50.974Z,1003.25
2017-07-11T00:58:00.972Z,1003.26
2017-07-11T00:58:11.030Z,1003.22
2017-07-11T00:58:20.627Z,1003.25
2017-07-11T00:58:30.617Z,1003.26
2017-07-11T00:58:40.280Z,1003.26
2017-07-11T00:58:50.611Z,1003.26
2017-07-11T00:59:00.272Z,1003.27
2017-07-11T00:59:10.601Z,1003.23
2017-07-11T00:59:20.594Z,1003.24
2017-07-11T00:59:31.284Z,1003.29
2017-07-11T00:59:40.919Z,1003.29
2017-07-11T00:59:50.581Z,1003.25
2017-07-11T01:00:00.243Z,1003.27
2017-07-11T01:00:10.966Z,1003.26
2017-07-11T01:00:20.904Z,1003.27
2017-07-11T01:00:30.955Z,1003.28
2017-07-11T01:00:40.555Z,1003.28
2017-07-11T01:00:50.550Z,1003.28
2017-07-11T01:01:00.211Z,1003.27
2017-07-11T01:01:10.875Z,1003.32
2017-07-11T01:01:20.876Z,1003.28
2017-07-11T01:01:30.867Z,1003.3
2017-07-11T01:01:40.584Z,1003.29
2017-07-11T01:01:50.855Z,1003.28
2017-07-11T01:02:00.518Z,1003.29
2017-07-11T01:02:10.849Z,1003.28
2017-07-11T01:02:20.841Z,1003.28
2017-07-11T01:02:30.836Z,1003.31
2017-07-11T01:02:40.497Z,1003.32
2017-07-11T01:02:50.494Z,1003.32
2017-07-11T01:03:00.485Z,1003.35
2017-07-11T01:03:10.822Z,1003.29
2017-07-11T01:03:20.812Z,1003.38
2017-07-11T01:03:30.139Z,1003.31
2017-07-11T01:03:40.807Z,1003.36
2017-07-11T01:03:50.465Z,1003.32
2017-07-11T01:04:00.814Z,1003.31
2017-07-11T01:04:10.789Z,1003.32
2017-07-11T01:04:20.114Z,1003.32
2017-07-11T01:04:30.105Z,1003.34
2017-07-11T01:04:40.777Z,1003.31
2017-07-11T01:04:50.798Z,1003.32
2017-07-11T01:05:00.424Z,1003.33
2017-07-11T01:05:10.089Z,1003.31
2017-07-11T01:05:20.752Z,1003.34
2017-07-11T01:05:30.079Z,1003.35
2017-07-11T01:05:40.407Z,1003.31
2017-07-11T01:05:50.737Z,1003.31
2017-07-11T01:06:00.732Z,1003.31
2017-07-11T01:06:10.731Z,1003.32
2017-07-11T01:06:20.723Z,1003.34
2017-07-11T01:06:30.716Z,1003.35
2017-07-11T01:06:40.380Z,1003.33
2017-07-11T01:06:50.385Z,1003.33
2017-07-11T01:07:00.700Z,1003.29
2017-07-11T01:07:10.695Z,1003.33
2017-07-11T01:07:20.359Z,1003.29
2017-07-11T01:07:30.021Z,1003.35
2017-07-11T01:07:40.687Z,1003.35
2017-07-11T01:07:50.344Z,1003.29
2017-07-11T01:08:00.343Z,1003.33
2017-07-11T01:08:10.338Z,1003.32
2017-07-11T01:08:20.333Z,1003.33
2017-07-11T01:08:30.321Z,1003.3
2017-07-11T01:08:40.368Z,1003.33
2017-07-11T01:08:50.313Z,1003.29
2017-07-11T01:09:00.655Z,1003.34
2017-07-11T01:09:10.638Z,1003.28
2017-07-11T01:09:20.300Z,1003.29
2017-07-11T01:09:30.629Z,1003.32
2017-07-11T01:09:40.624Z,1003.26
2017-07-11T01:09:50.284Z,1003.31
2017-07-11T01:10:00.279Z,1003.32
2017-07-11T01:10:10.606Z,1003.28
2017-07-11T01:10:19.934Z,1003.32
2017-07-11T01:10:29.934Z,1003.32
2017-07-11T01:10:40.590Z,1003.3
2017-07-11T01:10:50.255Z,1003.27
2017-07-11T01:11:00.251Z,1003.3
2017-07-11T01:11:10.580Z,1003.32
2017-07-11T01:11:20.242Z,1003.28
2017-07-11T01:11:30.569Z,1003.3
2017-07-11T01:11:40.566Z,1003.27
2017-07-11T01:11:50.558Z,1003.31
2017-07-11T01:12:00.218Z,1003.3
2017-07-11T01:12:10.549Z,1003.29
2017-07-11T01:12:19.871Z,1003.29
2017-07-11T01:12:29.868Z,1003.33
2017-07-11T01:12:40.201Z,1003.33
2017-07-11T01:12:50.532Z,1003.32
2017-07-11T01:13:00.527Z,1003.32
2017-07-11T01:13:10.187Z,1003.31
2017-07-11T01:13:20.512Z,1003.32
2017-07-11T01:13:30.512Z,1003.33
2017-07-11T01:13:40.518Z,1003.32
2017-07-11T01:13:50.167Z,1003.31
2017-07-11T01:14:00.496Z,1003.26
2017-07-11T01:14:10.151Z,1003.29
2017-07-11T01:14:20.153Z,1003.26
2017-07-11T01:14:30.483Z,1003.29
2017-07-11T01:14:40.140Z,1003.27
2017-07-11T01:14:50.133Z,1003.26
2017-07-11T01:15:00.136Z,1003.29
2017-07-11T01:15:09.795Z,1003.25
2017-07-11T01:15:20.122Z,1003.27
2017-07-11T01:15:30.116Z,1003.35
2017-07-11T01:15:40.448Z,1003.28
2017-07-11T01:15:50.444Z,1003.29
2017-07-11T01:15:59.766Z,1003.32
2017-07-11T01:16:10.109Z,1003.29
2017-07-11T01:16:20.094Z,1003.3
2017-07-11T01:16:30.088Z,1003.24
2017-07-11T01:16:40.088Z,1003.31
2017-07-11T01:16:50.417Z,1003.31
2017-07-11T01:17:00.075Z,1003.32
2017-07-11T01:17:10.073Z,1003.35
2017-07-11T01:17:19.729Z,1003.31
2017-07-11T01:17:30.391Z,1003.32
2017-07-11T01:17:40.051Z,1003.29
2017-07-11T01:17:50.382Z,1003.3
2017-07-11T01:18:00.378Z,1003.33
2017-07-11T01:18:10.373Z,1003.3
2017-07-11T01:18:19.696Z,1003.31
2017-07-11T01:18:30.023Z,1003.32
2017-07-11T01:18:40.367Z,1003.32
2017-07-11T01:18:50.019Z,1003.3
2017-07-11T01:19:00.014Z,1003.35
2017-07-11T01:19:10.010Z,1003.32
2017-07-11T01:19:20.337Z,1003.33
2017-07-11T01:19:29.662Z,1003.29
2017-07-11T01:19:40.328Z,1003.3
2017-07-11T01:19:49.993Z,1003.33
2017-07-11T01:20:00.317Z,1003.28
2017-07-11T01:20:09.982Z,1003.28
2017-07-11T01:20:19.641Z,1003.28
2017-07-11T01:20:30.668Z,1003.32
2017-07-11T01:20:39.628Z,1003.29
2017-07-11T01:20:50.294Z,1003.33
2017-07-11T01:21:00.285Z,1003.29
2017-07-11T01:21:09.944Z,1003.32
2017-07-11T01:21:19.949Z,1003.32
2017-07-11T01:21:30.270Z,1003.31
2017-07-11T01:21:40.267Z,1003.3
2017-07-11T01:21:49.928Z,1003.34
2017-07-11T01:22:00.260Z,1003.3
2017-07-11T01:22:09.922Z,1003.33
2017-07-11T01:22:20.246Z,1003.33
2017-07-11T01:22:29.907Z,1003.32
2017-07-11T01:22:39.904Z,1003.31
2017-07-11T01:22:50.230Z,1003.34
2017-07-11T01:22:59.558Z,1003.26
2017-07-11T01:23:09.888Z,1003.36
2017-07-11T01:23:19.883Z,1003.29
2017-07-11T01:23:30.215Z,1003.3
2017-07-11T01:23:39.874Z,1003.29
2017-07-11T01:23:49.532Z,1003.26
2017-07-11T01:24:00.199Z,1003.24
2017-07-11T01:24:09.528Z,1003.26
2017-07-11T01:24:19.520Z,1003.29
2017-07-11T01:24:30.183Z,1003.29
2017-07-11T01:24:40.176Z,1003.25
2017-07-11T01:24:50.170Z,1003.27
2017-07-11T01:25:00.171Z,1003.28
2017-07-11T01:25:09.497Z,1003.31
2017-07-11T01:25:19.494Z,1003.23
2017-07-11T01:25:29.489Z,1003.24
2017-07-11T01:25:40.152Z,1003.29
2017-07-11T01:25:49.809Z,1003.29
2017-07-11T01:25:59.471Z,1003.28
2017-07-11T01:26:09.800Z,1003.28
2017-07-11T01:26:19.796Z,1003.29
2017-07-11T01:26:30.124Z,1003.31
2017-07-11T01:26:40.119Z,1003.29
2017-07-11T01:26:50.115Z,1003.27
2017-07-11T01:26:59.774Z,1003.25
2017-07-11T01:27:10.112Z,1003.26
2017-07-11T01:27:19.764Z,1003.26
2017-07-11T01:27:29.760Z,1003.28
2017-07-11T01:27:39.756Z,1003.29
2017-07-11T01:27:50.441Z,1003.24
2017-07-11T01:28:00.081Z,1003.21
2017-07-11T01:28:10.073Z,1003.28
2017-07-11T01:28:20.075Z,1003.26
2017-07-11T01:28:30.063Z,1003.26
2017-07-11T01:28:40.061Z,1003.27
2017-07-11T01:28:50.054Z,1003.26
2017-07-11T01:28:59.711Z,1003.27
2017-07-11T01:29:10.045Z,1003.25
2017-07-11T01:29:19.715Z,1003.28
2017-07-11T01:29:29.700Z,1003.27
2017-07-11T01:29:39.356Z,1003.3
2017-07-11T01:29:49.356Z,1003.27
2017-07-11T01:29:59.690Z,1003.27
2017-07-11T01:30:09.682Z,1003.24
2017-07-11T01:30:20.014Z,1003.25
2017-07-11T01:30:29.671Z,1003.25
2017-07-11T01:30:39.333Z,1003.25
2017-07-11T01:30:49.659Z,1003.27
2017-07-11T01:30:59.993Z,1003.26
2017-07-11T01:31:09.651Z,1003.26
2017-07-11T01:31:19.982Z,1003.23
2017-07-11T01:31:29.309Z,1003.25
2017-07-11T01:31:39.969Z,1003.27
2017-07-11T01:31:49.635Z,1003.2
2017-07-11T01:31:59.965Z,1003.26
2017-07-11T01:32:09.958Z,1003.26
2017-07-11T01:32:19.620Z,1003.22
2017-07-11T01:32:29.943Z,1003.25
2017-07-11T01:32:39.937Z,1003.27
2017-07-11T01:32:49.264Z,1003.27
2017-07-11T01:32:59.592Z,1003.25
2017-07-11T01:33:09.594Z,1003.23
2017-07-11T01:33:19.593Z,1003.26
2017-07-11T01:33:29.246Z,1003.29
2017-07-11T01:33:39.578Z,1003.27
2017-07-11T01:33:49.905Z,1003.23
2017-07-11T01:33:59.565Z,1003.24
2017-07-11T01:34:09.229Z,1003.21
2017-07-11T01:34:19.558Z,1003.21
2017-07-11T01:34:29.887Z,1003.2
2017-07-11T01:34:39.881Z,1003.24
2017-07-11T01:34:49.879Z,1003.24
2017-07-11T01:34:59.869Z,1003.3
2017-07-11T01:35:09.534Z,1003.2
2017-07-11T01:35:19.535Z,1003.23
2017-07-11T01:35:29.524Z,1003.25
2017-07-11T01:35:39.852Z,1003.25
2017-07-11T01:35:49.850Z,1003.24
2017-07-11T01:35:59.510Z,1003.25
2017-07-11T01:36:09.500Z,1003.23
2017-07-11T01:36:19.501Z,1003.23
2017-07-11T01:36:29.825Z,1003.17
2017-07-11T01:36:39.488Z,1003.24
2017-07-11T01:36:49.825Z,1003.24
2017-07-11T01:36:59.477Z,1003.27
2017-07-11T01:37:09.472Z,1003.22
2017-07-11T01:37:20.173Z,1003.23
2017-07-11T01:37:29.128Z,1003.27
2017-07-11T01:37:39.458Z,1003.23
2017-07-11T01:37:49.783Z,1003.27
2017-07-11T01:37:59.786Z,1003.28
2017-07-11T01:38:09.443Z,1003.23
2017-07-11T01:38:19.779Z,1003.25
2017-07-11T01:38:29.101Z,1003.25
2017-07-11T01:38:39.443Z,1003.24
2017-07-11T01:38:49.424Z,1003.25
2017-07-11T01:38:59.756Z,1003.23
2017-07-11T01:39:10.102Z,1003.2
2017-07-11T01:39:19.738Z,1003.24
2017-07-11T01:39:29.403Z,1003.23
2017-07-11T01:39:39.732Z,1003.22
2017-07-11T01:39:49.728Z,1003.23
2017-07-11T01:39:59.726Z,1003.24
2017-07-11T01:40:09.735Z,1003.25
2017-07-11T01:40:19.713Z,1003.19
2017-07-11T01:40:29.375Z,1003.24
2017-07-11T01:40:39.373Z,1003.23
2017-07-11T01:40:49.363Z,1003.23
2017-07-11T01:40:59.696Z,1003.21
2017-07-11T01:41:09.017Z,1003.22
2017-07-11T01:41:19.683Z,1003.2
2017-07-11T01:41:29.681Z,1003.25
2017-07-11T01:41:39.676Z,1003.19
2017-07-11T01:41:49.329Z,1003.2
2017-07-11T01:41:59.660Z,1003.19
2017-07-11T01:42:09.326Z,1003.24
2017-07-11T01:42:19.321Z,1003.19
2017-07-11T01:42:29.312Z,1003.17
2017-07-11T01:42:39.650Z,1003.22
2017-07-11T01:42:49.638Z,1003.21
2017-07-11T01:42:59.299Z,1003.22
2017-07-11T01:43:09.629Z,1003.24
2017-07-11T01:43:19.290Z,1003.24
2017-07-11T01:43:29.283Z,1003.24
2017-07-11T01:43:39.613Z,1003.22
2017-07-11T01:43:49.610Z,1003.21
2017-07-11T01:43:59.601Z,1003.21
2017-07-11T01:44:09.264Z,1003.18
2017-07-11T01:44:19.596Z,1003.23
2017-07-11T01:44:29.589Z,1003.21
2017-07-11T01:44:39.587Z,1003.25
2017-07-11T01:44:49.585Z,1003.23
2017-07-11T01:44:59.580Z,1003.21
2017-07-11T01:45:09.927Z,1003.23
2017-07-11T01:45:19.232Z,1003.21
2017-07-11T01:45:28.889Z,1003.23
2017-07-11T01:45:39.224Z,1003.18
2017-07-11T01:45:49.216Z,1003.2
2017-07-11T01:45:58.874Z,1003.19
2017-07-11T01:46:09.542Z,1003.2
2017-07-11T01:46:19.199Z,1003.22
2017-07-11T01:46:29.190Z,1003.24
2017-07-11T01:46:39.527Z,1003.22
2017-07-11T01:46:49.183Z,1003.23
2017-07-11T01:46:59.517Z,1003.21
2017-07-11T01:47:09.173Z,1003.21
2017-07-11T01:47:19.168Z,1003.2
2017-07-11T01:47:29.498Z,1003.25
2017-07-11T01:47:39.499Z,1003.2
2017-07-11T01:47:49.489Z,1003.19
2017-07-11T01:47:59.152Z,1003.25
2017-07-11T01:48:09.479Z,1003.24
2017-07-11T01:48:19.479Z,1003.21
2017-07-11T01:48:29.467Z,1003.19
2017-07-11T01:48:39.464Z,1003.23
2017-07-11T01:48:49.136Z,1003.2
2017-07-11T01:48:59.455Z,1003.19
2017-07-11T01:49:09.117Z,1003.19
2017-07-11T01:49:19.116Z,1003.23
2017-07-11T01:49:29.104Z,1003.2
2017-07-11T01:49:39.100Z,1003.2
2017-07-11T01:49:49.094Z,1003.22
2017-07-11T01:49:59.087Z,1003.2
2017-07-11T01:50:09.426Z,1003.18
2017-07-11T01:50:19.082Z,1003.22
2017-07-11T01:50:29.414Z,1003.21
2017-07-11T01:50:38.739Z,1003.19
2017-07-11T01:50:49.066Z,1003.25
2017-07-11T01:50:59.394Z,1003.19
2017-07-11T01:51:09.393Z,1003.17
2017-07-11T01:51:19.051Z,1003.21
2017-07-11T01:51:29.380Z,1003.18
2017-07-11T01:51:39.036Z,1003.22
2017-07-11T01:51:49.370Z,1003.18
2017-07-11T01:51:59.365Z,1003.19
2017-07-11T01:52:09.716Z,1003.22
2017-07-11T01:52:19.354Z,1003.19
2017-07-11T01:52:28.684Z,1003.13
2017-07-11T01:52:39.349Z,1003.2
2017-07-11T01:52:49.341Z,1003.19
2017-07-11T01:52:58.998Z,1003.18
2017-07-11T01:53:09.325Z,1003.19
2017-07-11T01:53:19.335Z,1003.18
2017-07-11T01:53:28.650Z,1003.17
2017-07-11T01:53:38.979Z,1003.21
2017-07-11T01:53:48.979Z,1003.19
2017-07-11T01:53:58.975Z,1003.15
2017-07-11T01:54:08.968Z,1003.16
2017-07-11T01:54:18.958Z,1003.17
2017-07-11T01:54:28.952Z,1003.15
2017-07-11T01:54:39.283Z,1003.23
2017-07-11T01:54:48.945Z,1003.2
2017-07-11T01:54:58.942Z,1003.17
2017-07-11T01:55:08.932Z,1003.22
2017-07-11T01:55:18.935Z,1003.23
2017-07-11T01:55:28.596Z,1003.19
2017-07-11T01:55:39.260Z,1003.21
2017-07-11T01:55:48.921Z,1003.18
2017-07-11T01:55:59.250Z,1003.23
2017-07-11T01:56:09.244Z,1003.21
2017-07-11T01:56:19.237Z,1003.2
2017-07-11T01:56:29.239Z,1003.19
2017-07-11T01:56:39.224Z,1003.2
2017-07-11T01:56:48.887Z,1003.18
2017-07-11T01:56:59.218Z,1003.19
2017-07-11T01:57:08.538Z,1003.22
2017-07-11T01:57:19.212Z,1003.22
2017-07-11T01:57:28.868Z,1003.16
2017-07-11T01:57:38.864Z,1003.18
2017-07-11T01:57:48.859Z,1003.15
2017-07-11T01:57:59.194Z,1003.16
2017-07-11T01:58:09.537Z,1003.16
2017-07-11T01:58:19.179Z,1003.18
2017-07-11T01:58:28.837Z,1003.17
2017-07-11T01:58:39.167Z,1003.18
2017-07-11T01:58:49.516Z,1003.18
2017-07-11T01:58:59.159Z,1003.17
2017-07-11T01:59:08.820Z,1003.19
2017-07-11T01:59:19.145Z,1003.2
2017-07-11T01:59:28.810Z,1003.16
2017-07-11T01:59:39.486Z,1003.2
2017-07-11T01:59:48.466Z,1003.14
2017-07-11T01:59:59.128Z,1003.15
2017-07-11T02:00:08.786Z,1003.16
2017-07-11T02:00:18.784Z,1003.12
2017-07-11T02:00:28.772Z,1003.15
2017-07-11T02:00:38.776Z,1003.15
2017-07-11T02:00:49.102Z,1003.13
2017-07-11T02:00:58.764Z,1003.17
2017-07-11T02:01:08.756Z,1003.16
2017-07-11T02:01:19.092Z,1003.11